RYR6SF LEPA-EGSS
Flight info
| Callsign | RYR6SF |
|---|---|
| Flight time | 2h 4m |
| Altitude | 36000 |
| Route | GALAT N861 CAVES DCT LATRO DCT OLOXO DCT OKABI DCT TOU DCT TUPAR UN861 DIKRO UM185 TELTU |
| Aircraft | B738/M-SDE2E3FGHIRWXY/LB1 |
Departure
| Time | 2026-05-04 12:02 |
|---|---|
| Airport | Palma de Mallorca Airport (LEPA) |
Arrival
| Time | 2026-05-04 14:07 |
|---|---|
| Airport | London Stansted Airport (EGSS) |
| Time | Latitude | Longitude | Altitude | Speed | Heading |
|---|---|---|---|---|---|
| 2026-05-04 11:40 | 39.54527 | 2.73279 | 31 ft | 0 kts | 347° |
| 2026-05-04 11:50 | 39.54520 | 2.73281 | 30 ft | 2 kts | 347° |
| 2026-05-04 11:51 | 39.54504 | 2.73286 | 31 ft | 2 kts | 347° |
| 2026-05-04 11:51 | 39.54488 | 2.73291 | 31 ft | 2 kts | 347° |
| 2026-05-04 11:51 | 39.54472 | 2.73295 | 31 ft | 2 kts | 347° |
| 2026-05-04 11:51 | 39.54456 | 2.73300 | 31 ft | 2 kts | 347° |
| 2026-05-04 11:52 | 39.54451 | 2.73301 | 32 ft | 0 kts | 348° |
| 2026-05-04 11:53 | 39.54452 | 2.73301 | 33 ft | 2 kts | 348° |
| 2026-05-04 11:55 | 39.54680 | 2.73717 | 30 ft | 9 kts | 59° |
| 2026-05-04 11:55 | 39.54711 | 2.73784 | 30 ft | 8 kts | 59° |
| 2026-05-04 11:56 | 39.54741 | 2.73848 | 29 ft | 8 kts | 57° |
| 2026-05-04 11:56 | 39.54764 | 2.73914 | 29 ft | 8 kts | 95° |
| 2026-05-04 11:56 | 39.54738 | 2.73980 | 29 ft | 8 kts | 115° |
| 2026-05-04 11:56 | 39.54751 | 2.74047 | 29 ft | 8 kts | 59° |
| 2026-05-04 11:57 | 39.54780 | 2.74109 | 28 ft | 8 kts | 59° |
| 2026-05-04 11:57 | 39.54818 | 2.74192 | 28 ft | 14 kts | 59° |
| 2026-05-04 11:57 | 39.54869 | 2.74301 | 27 ft | 14 kts | 59° |
| 2026-05-04 11:57 | 39.54917 | 2.74406 | 28 ft | 13 kts | 59° |
| 2026-05-04 11:58 | 39.54964 | 2.74506 | 27 ft | 13 kts | 59° |
| 2026-05-04 11:58 | 39.55011 | 2.74606 | 25 ft | 14 kts | 58° |
| 2026-05-04 11:58 | 39.55069 | 2.74717 | 24 ft | 15 kts | 56° |
| 2026-05-04 11:58 | 39.55121 | 2.74830 | 25 ft | 14 kts | 61° |
| 2026-05-04 11:59 | 39.55175 | 2.74944 | 27 ft | 18 kts | 57° |
| 2026-05-04 11:59 | 39.55246 | 2.75094 | 22 ft | 19 kts | 59° |
| 2026-05-04 11:59 | 39.55320 | 2.75253 | 22 ft | 22 kts | 59° |
| 2026-05-04 11:59 | 39.55398 | 2.75420 | 20 ft | 21 kts | 59° |
| 2026-05-04 12:00 | 39.55473 | 2.75581 | 19 ft | 21 kts | 59° |
| 2026-05-04 12:00 | 39.55547 | 2.75736 | 18 ft | 20 kts | 57° |
| 2026-05-04 12:00 | 39.55621 | 2.75885 | 17 ft | 19 kts | 57° |
| 2026-05-04 12:00 | 39.55632 | 2.76034 | 17 ft | 19 kts | 137° |
| 2026-05-04 12:01 | 39.55608 | 2.76058 | 17 ft | 0 kts | 144° |
| 2026-05-04 12:01 | 39.55594 | 2.76071 | 17 ft | 12 kts | 144° |
| 2026-05-04 12:02 | 39.53353 | 2.71574 | 1986 ft | 179 kts | 237° |
| 2026-05-04 12:03 | 39.53015 | 2.70847 | 2680 ft | 172 kts | 237° |
| 2026-05-04 12:03 | 39.52408 | 2.69549 | 3682 ft | 169 kts | 238° |
| 2026-05-04 12:03 | 39.51772 | 2.68175 | 4087 ft | 191 kts | 239° |
| 2026-05-04 12:03 | 39.51107 | 2.66583 | 4296 ft | 211 kts | 241° |
| 2026-05-04 12:04 | 39.50393 | 2.64830 | 4587 ft | 227 kts | 242° |
| 2026-05-04 12:04 | 39.49622 | 2.62936 | 4845 ft | 247 kts | 241° |
| 2026-05-04 12:04 | 39.48804 | 2.60933 | 5484 ft | 254 kts | 241° |
| 2026-05-04 12:04 | 39.47973 | 2.58907 | 6302 ft | 255 kts | 241° |
| 2026-05-04 12:05 | 39.47137 | 2.56877 | 7073 ft | 257 kts | 240° |
| 2026-05-04 12:05 | 39.46290 | 2.54821 | 7779 ft | 261 kts | 240° |
| 2026-05-04 12:05 | 39.45440 | 2.52740 | 8516 ft | 263 kts | 244° |
| 2026-05-04 12:05 | 39.44986 | 2.50425 | 9218 ft | 271 kts | 265° |
| 2026-05-04 12:06 | 39.45290 | 2.47995 | 9937 ft | 281 kts | 288° |
| 2026-05-04 12:06 | 39.46403 | 2.45850 | 10399 ft | 302 kts | 312° |
| 2026-05-04 12:06 | 39.48182 | 2.44217 | 10573 ft | 330 kts | 326° |
| 2026-05-04 12:06 | 39.50289 | 2.42764 | 10779 ft | 350 kts | 329° |
| 2026-05-04 12:07 | 39.52474 | 2.41291 | 11273 ft | 358 kts | 328° |
| 2026-05-04 12:07 | 39.54683 | 2.39759 | 11955 ft | 360 kts | 328° |
| 2026-05-04 12:07 | 39.56872 | 2.38186 | 12674 ft | 361 kts | 326° |
| 2026-05-04 12:07 | 39.59032 | 2.36584 | 13364 ft | 364 kts | 326° |
| 2026-05-04 12:08 | 39.61274 | 2.34902 | 14030 ft | 368 kts | 326° |
| 2026-05-04 12:08 | 39.63492 | 2.33235 | 14664 ft | 370 kts | 325° |
| 2026-05-04 12:08 | 39.65727 | 2.31556 | 15304 ft | 371 kts | 325° |
| 2026-05-04 12:08 | 39.67969 | 2.29873 | 15915 ft | 374 kts | 325° |
| 2026-05-04 12:09 | 39.70226 | 2.28180 | 16511 ft | 376 kts | 325° |
| 2026-05-04 12:09 | 39.72470 | 2.26498 | 17112 ft | 379 kts | 325° |
| 2026-05-04 12:09 | 39.74760 | 2.24780 | 17714 ft | 381 kts | 324° |
| 2026-05-04 12:09 | 39.77064 | 2.23052 | 18304 ft | 384 kts | 324° |
| 2026-05-04 12:10 | 39.79380 | 2.21314 | 18805 ft | 386 kts | 324° |
| 2026-05-04 12:10 | 39.81719 | 2.19555 | 19269 ft | 390 kts | 324° |
| 2026-05-04 12:10 | 39.84077 | 2.17783 | 19732 ft | 393 kts | 324° |
| 2026-05-04 12:10 | 39.86456 | 2.15992 | 20203 ft | 397 kts | 324° |
| 2026-05-04 12:11 | 39.88858 | 2.14183 | 20664 ft | 400 kts | 324° |
| 2026-05-04 12:11 | 39.91279 | 2.12358 | 21122 ft | 403 kts | 324° |
| 2026-05-04 12:11 | 39.93712 | 2.10524 | 21565 ft | 407 kts | 324° |
| 2026-05-04 12:11 | 39.96173 | 2.08666 | 22016 ft | 410 kts | 323° |
| 2026-05-04 12:12 | 39.98647 | 2.06797 | 22459 ft | 412 kts | 323° |
| 2026-05-04 12:12 | 40.01137 | 2.04915 | 22894 ft | 415 kts | 323° |
| 2026-05-04 12:12 | 40.03645 | 2.03017 | 23318 ft | 418 kts | 323° |
| 2026-05-04 12:12 | 40.06166 | 2.01107 | 23704 ft | 421 kts | 323° |
| 2026-05-04 12:13 | 40.08707 | 1.99182 | 24068 ft | 424 kts | 323° |
| 2026-05-04 12:14 | 40.27983 | 1.91096 | 26227 ft | 459 kts | 344° |
| 2026-05-04 12:15 | 40.31148 | 1.90402 | 26530 ft | 462 kts | 344° |
| 2026-05-04 12:15 | 40.34319 | 1.89688 | 26832 ft | 464 kts | 343° |
| 2026-05-04 12:15 | 40.37507 | 1.88955 | 27125 ft | 466 kts | 343° |
| 2026-05-04 12:15 | 40.40713 | 1.88208 | 27416 ft | 469 kts | 343° |
| 2026-05-04 12:16 | 40.43933 | 1.87453 | 27699 ft | 471 kts | 343° |
| 2026-05-04 12:16 | 40.47166 | 1.86694 | 27978 ft | 474 kts | 343° |
| 2026-05-04 12:16 | 40.50422 | 1.85928 | 28249 ft | 476 kts | 343° |
| 2026-05-04 12:16 | 40.53688 | 1.85161 | 28513 ft | 479 kts | 343° |
| 2026-05-04 12:17 | 40.56974 | 1.84388 | 28775 ft | 481 kts | 343° |
| 2026-05-04 12:17 | 40.60276 | 1.83612 | 29036 ft | 483 kts | 343° |
| 2026-05-04 12:17 | 40.63594 | 1.82831 | 29295 ft | 485 kts | 343° |
| 2026-05-04 12:17 | 40.66923 | 1.82047 | 29540 ft | 488 kts | 343° |
| 2026-05-04 12:18 | 40.70267 | 1.81260 | 29836 ft | 489 kts | 343° |
| 2026-05-04 12:18 | 40.73616 | 1.80471 | 30161 ft | 488 kts | 343° |
| 2026-05-04 12:18 | 40.76958 | 1.79683 | 30463 ft | 488 kts | 343° |
| 2026-05-04 12:18 | 40.80300 | 1.78893 | 30724 ft | 488 kts | 343° |
| 2026-05-04 12:19 | 40.83646 | 1.78100 | 30979 ft | 489 kts | 343° |
| 2026-05-04 12:19 | 40.86989 | 1.77308 | 31250 ft | 489 kts | 342° |
| 2026-05-04 12:19 | 40.90338 | 1.76513 | 31536 ft | 488 kts | 342° |
| 2026-05-04 12:19 | 40.93680 | 1.75720 | 31805 ft | 488 kts | 342° |
| 2026-05-04 12:20 | 40.97022 | 1.74925 | 32078 ft | 488 kts | 342° |
| 2026-05-04 12:20 | 41.00361 | 1.74131 | 32367 ft | 487 kts | 342° |
| 2026-05-04 12:20 | 41.03688 | 1.73338 | 32646 ft | 486 kts | 342° |
| 2026-05-04 12:20 | 41.07020 | 1.72621 | 32884 ft | 489 kts | 345° |
| 2026-05-04 12:21 | 41.10361 | 1.72096 | 33134 ft | 491 kts | 346° |
| 2026-05-04 12:21 | 41.13809 | 1.71641 | 33406 ft | 491 kts | 347° |
| 2026-05-04 12:21 | 41.17224 | 1.71181 | 33668 ft | 490 kts | 346° |
| 2026-05-04 12:21 | 41.20583 | 1.70692 | 33924 ft | 489 kts | 346° |
| 2026-05-04 12:22 | 41.23948 | 1.70163 | 34150 ft | 487 kts | 345° |
| 2026-05-04 12:22 | 41.27314 | 1.69604 | 34386 ft | 486 kts | 345° |
| 2026-05-04 12:22 | 41.30677 | 1.69073 | 34619 ft | 485 kts | 346° |
| 2026-05-04 12:22 | 41.34022 | 1.68569 | 34861 ft | 484 kts | 346° |
| 2026-05-04 12:23 | 41.37378 | 1.68063 | 35073 ft | 483 kts | 346° |
| 2026-05-04 12:23 | 41.40714 | 1.67555 | 35320 ft | 481 kts | 346° |
| 2026-05-04 12:23 | 41.44009 | 1.67051 | 35548 ft | 480 kts | 346° |
| 2026-05-04 12:23 | 41.47352 | 1.66543 | 35726 ft | 480 kts | 346° |
| 2026-05-04 12:24 | 41.50672 | 1.66034 | 35898 ft | 480 kts | 346° |
| 2026-05-04 12:24 | 41.53973 | 1.65512 | 35942 ft | 482 kts | 346° |
| 2026-05-04 12:24 | 41.60628 | 1.64447 | 35933 ft | 481 kts | 346° |
| 2026-05-04 12:25 | 41.67272 | 1.63388 | 35941 ft | 477 kts | 346° |
| 2026-05-04 12:25 | 41.73856 | 1.62335 | 35952 ft | 478 kts | 346° |
| 2026-05-04 12:26 | 41.80424 | 1.61288 | 35944 ft | 480 kts | 346° |
| 2026-05-04 12:26 | 41.87073 | 1.60245 | 35946 ft | 481 kts | 346° |
| 2026-05-04 12:27 | 41.93709 | 1.59205 | 35941 ft | 481 kts | 346° |
| 2026-05-04 12:27 | 42.00396 | 1.58153 | 35943 ft | 482 kts | 346° |
| 2026-05-04 12:28 | 42.07068 | 1.57099 | 35952 ft | 482 kts | 346° |
| 2026-05-04 12:28 | 42.13698 | 1.56049 | 35961 ft | 482 kts | 346° |
| 2026-05-04 12:29 | 42.20354 | 1.54992 | 35945 ft | 480 kts | 347° |
| 2026-05-04 12:29 | 42.26962 | 1.53944 | 35991 ft | 477 kts | 346° |
| 2026-05-04 12:30 | 42.33560 | 1.52890 | 35977 ft | 476 kts | 346° |
| 2026-05-04 12:30 | 42.40108 | 1.51843 | 35975 ft | 475 kts | 346° |
| 2026-05-04 12:31 | 42.46716 | 1.50787 | 35968 ft | 475 kts | 346° |
| 2026-05-04 12:31 | 42.53291 | 1.49735 | 35961 ft | 476 kts | 346° |
| 2026-05-04 12:32 | 42.63162 | 1.48148 | 35942 ft | 479 kts | 347° |
| 2026-05-04 12:33 | 42.69778 | 1.47085 | 35953 ft | 480 kts | 347° |
| 2026-05-04 12:33 | 42.76460 | 1.46007 | 35924 ft | 483 kts | 346° |
| 2026-05-04 12:34 | 42.83053 | 1.44945 | 35951 ft | 481 kts | 346° |
| 2026-05-04 12:34 | 42.89754 | 1.43862 | 35926 ft | 481 kts | 347° |
| 2026-05-04 12:35 | 42.96357 | 1.42789 | 35917 ft | 482 kts | 347° |
| 2026-05-04 12:35 | 43.03057 | 1.41701 | 35919 ft | 479 kts | 347° |
| 2026-05-04 12:36 | 43.09653 | 1.40629 | 35917 ft | 475 kts | 347° |
| 2026-05-04 12:36 | 43.16160 | 1.39568 | 35908 ft | 473 kts | 347° |
| 2026-05-04 12:37 | 43.22669 | 1.38502 | 35920 ft | 471 kts | 347° |
| 2026-05-04 12:37 | 43.29216 | 1.37423 | 35928 ft | 477 kts | 347° |
| 2026-05-04 12:38 | 43.35856 | 1.36329 | 35930 ft | 482 kts | 347° |
| 2026-05-04 12:38 | 43.42532 | 1.35232 | 35913 ft | 484 kts | 347° |
| 2026-05-04 12:39 | 43.49230 | 1.34128 | 35920 ft | 485 kts | 347° |
| 2026-05-04 12:39 | 43.55927 | 1.33021 | 35910 ft | 485 kts | 347° |
| 2026-05-04 12:40 | 43.62612 | 1.31913 | 35913 ft | 483 kts | 347° |
| 2026-05-04 12:40 | 43.69147 | 1.30199 | 35908 ft | 471 kts | 335° |
| 2026-05-04 12:41 | 43.75011 | 1.26495 | 35924 ft | 461 kts | 327° |
| 2026-05-04 12:41 | 43.80728 | 1.22480 | 35914 ft | 460 kts | 327° |
| 2026-05-04 12:42 | 43.86439 | 1.18501 | 35921 ft | 459 kts | 327° |
| 2026-05-04 12:42 | 43.92150 | 1.14564 | 35929 ft | 458 kts | 327° |
| 2026-05-04 12:43 | 43.97859 | 1.10640 | 35933 ft | 458 kts | 327° |
| 2026-05-04 12:43 | 44.03574 | 1.06706 | 35933 ft | 458 kts | 328° |
| 2026-05-04 12:44 | 44.09253 | 1.02787 | 35935 ft | 459 kts | 328° |
| 2026-05-04 12:44 | 44.14984 | 0.98821 | 35939 ft | 461 kts | 328° |
| 2026-05-04 12:45 | 44.20732 | 0.94836 | 35939 ft | 462 kts | 328° |
| 2026-05-04 12:45 | 44.26501 | 0.90827 | 35941 ft | 464 kts | 328° |
| 2026-05-04 12:46 | 44.32286 | 0.86799 | 35933 ft | 465 kts | 328° |
| 2026-05-04 12:46 | 44.38087 | 0.82751 | 35937 ft | 467 kts | 328° |
| 2026-05-04 12:47 | 44.43900 | 0.78685 | 35938 ft | 468 kts | 328° |
| 2026-05-04 12:47 | 44.49724 | 0.74602 | 35928 ft | 468 kts | 328° |
| 2026-05-04 12:48 | 44.55553 | 0.70507 | 35928 ft | 469 kts | 328° |
| 2026-05-04 12:48 | 44.61385 | 0.66401 | 35920 ft | 469 kts | 328° |
| 2026-05-04 12:49 | 44.67217 | 0.62285 | 35925 ft | 470 kts | 328° |
| 2026-05-04 12:49 | 44.73056 | 0.58154 | 35917 ft | 470 kts | 328° |
| 2026-05-04 12:50 | 44.78883 | 0.54024 | 35913 ft | 468 kts | 328° |
| 2026-05-04 12:50 | 44.84693 | 0.49896 | 35914 ft | 467 kts | 328° |
| 2026-05-04 12:51 | 44.90489 | 0.45768 | 35916 ft | 466 kts | 328° |
| 2026-05-04 12:51 | 44.96268 | 0.41642 | 35919 ft | 465 kts | 328° |
| 2026-05-04 12:52 | 45.02035 | 0.37516 | 35919 ft | 464 kts | 328° |
| 2026-05-04 12:52 | 45.07790 | 0.33389 | 35920 ft | 463 kts | 328° |
| 2026-05-04 12:53 | 45.13535 | 0.29259 | 35927 ft | 463 kts | 328° |
| 2026-05-04 12:53 | 45.19281 | 0.25119 | 35918 ft | 463 kts | 328° |
| 2026-05-04 12:54 | 45.25020 | 0.20976 | 35921 ft | 463 kts | 328° |
| 2026-05-04 12:54 | 45.30772 | 0.16812 | 35935 ft | 466 kts | 329° |
| 2026-05-04 12:55 | 45.36574 | 0.12602 | 35929 ft | 469 kts | 329° |
| 2026-05-04 12:55 | 45.42370 | 0.08390 | 35913 ft | 466 kts | 329° |
| 2026-05-04 12:56 | 45.48119 | 0.04204 | 35929 ft | 463 kts | 329° |
| 2026-05-04 12:56 | 45.53838 | 0.00027 | 35924 ft | 461 kts | 329° |
| 2026-05-04 12:57 | 45.59534 | -0.04144 | 35936 ft | 460 kts | 329° |
| 2026-05-04 12:57 | 45.65230 | -0.08325 | 35934 ft | 461 kts | 329° |
| 2026-05-04 12:58 | 45.70944 | -0.12528 | 35944 ft | 463 kts | 329° |
| 2026-05-04 12:58 | 45.76685 | -0.16761 | 35946 ft | 465 kts | 329° |
| 2026-05-04 12:59 | 45.81478 | -0.20302 | 35941 ft | 468 kts | 329° |
| 2026-05-04 12:59 | 45.88217 | -0.25292 | 35946 ft | 471 kts | 329° |
| 2026-05-04 13:00 | 45.94047 | -0.29620 | 35955 ft | 473 kts | 329° |
| 2026-05-04 13:00 | 45.99893 | -0.33969 | 35944 ft | 474 kts | 329° |
| 2026-05-04 13:01 | 46.04799 | -0.37628 | 35937 ft | 474 kts | 329° |
| 2026-05-04 13:01 | 46.10578 | -0.41944 | 35936 ft | 468 kts | 329° |
| 2026-05-04 13:02 | 46.16343 | -0.46263 | 35930 ft | 467 kts | 329° |
| 2026-05-04 13:02 | 46.22080 | -0.50573 | 35929 ft | 463 kts | 329° |
| 2026-05-04 13:03 | 46.27774 | -0.54860 | 35940 ft | 460 kts | 329° |
| 2026-05-04 13:03 | 46.33439 | -0.59136 | 35940 ft | 459 kts | 329° |
| 2026-05-04 13:04 | 46.39099 | -0.63417 | 35945 ft | 459 kts | 329° |
| 2026-05-04 13:04 | 46.45103 | -0.66749 | 35951 ft | 470 kts | 346° |
| 2026-05-04 13:05 | 46.51642 | -0.67980 | 35955 ft | 477 kts | 352° |
| 2026-05-04 13:05 | 46.58267 | -0.68957 | 35964 ft | 480 kts | 352° |
| 2026-05-04 13:06 | 46.64903 | -0.69996 | 35945 ft | 477 kts | 352° |
| 2026-05-04 13:06 | 46.71428 | -0.71080 | 35952 ft | 469 kts | 352° |
| 2026-05-04 13:07 | 46.77913 | -0.72182 | 35964 ft | 469 kts | 352° |
| 2026-05-04 13:07 | 46.84398 | -0.73286 | 35964 ft | 469 kts | 352° |
| 2026-05-04 13:08 | 46.90889 | -0.74390 | 35965 ft | 470 kts | 352° |
| 2026-05-04 13:08 | 46.97353 | -0.75491 | 35966 ft | 471 kts | 352° |
| 2026-05-04 13:09 | 47.03887 | -0.76606 | 35964 ft | 472 kts | 352° |
| 2026-05-04 13:09 | 47.10422 | -0.77724 | 35965 ft | 473 kts | 352° |
| 2026-05-04 13:10 | 47.16972 | -0.78847 | 35964 ft | 475 kts | 352° |
| 2026-05-04 13:10 | 47.23537 | -0.79976 | 35964 ft | 475 kts | 352° |
| 2026-05-04 13:11 | 47.30111 | -0.81109 | 35959 ft | 475 kts | 352° |
| 2026-05-04 13:11 | 47.36665 | -0.82242 | 35950 ft | 473 kts | 352° |
| 2026-05-04 13:12 | 47.43188 | -0.83372 | 35958 ft | 471 kts | 352° |
| 2026-05-04 13:12 | 47.49687 | -0.84501 | 35956 ft | 470 kts | 352° |
| 2026-05-04 13:13 | 47.56177 | -0.85591 | 35955 ft | 469 kts | 353° |
| 2026-05-04 13:13 | 47.62689 | -0.86394 | 35961 ft | 470 kts | 354° |
| 2026-05-04 13:14 | 47.69208 | -0.87125 | 35973 ft | 470 kts | 354° |
| 2026-05-04 13:14 | 47.75754 | -0.87892 | 35972 ft | 474 kts | 354° |
| 2026-05-04 13:15 | 47.82342 | -0.88693 | 35962 ft | 476 kts | 354° |
| 2026-05-04 13:15 | 47.88950 | -0.89507 | 35963 ft | 477 kts | 354° |
| 2026-05-04 13:16 | 47.95568 | -0.90325 | 35954 ft | 476 kts | 354° |
| 2026-05-04 13:16 | 48.02160 | -0.91139 | 35960 ft | 474 kts | 354° |
| 2026-05-04 13:17 | 48.08698 | -0.91949 | 35958 ft | 469 kts | 354° |
| 2026-05-04 13:17 | 48.15136 | -0.92748 | 35957 ft | 466 kts | 354° |
| 2026-05-04 13:18 | 48.21585 | -0.93552 | 35965 ft | 464 kts | 354° |
| 2026-05-04 13:18 | 48.28014 | -0.94355 | 35964 ft | 463 kts | 354° |
| 2026-05-04 13:19 | 48.34435 | -0.95159 | 35974 ft | 464 kts | 354° |
| 2026-05-04 13:19 | 48.40896 | -0.95971 | 35976 ft | 469 kts | 354° |
| 2026-05-04 13:20 | 48.47426 | -0.96793 | 35965 ft | 471 kts | 354° |
| 2026-05-04 13:20 | 48.53936 | -0.97613 | 35959 ft | 468 kts | 354° |
| 2026-05-04 13:21 | 48.60398 | -0.98429 | 35963 ft | 464 kts | 354° |
| 2026-05-04 13:21 | 48.66822 | -0.99243 | 35974 ft | 462 kts | 354° |
| 2026-05-04 13:22 | 48.73221 | -1.00057 | 35973 ft | 461 kts | 354° |
| 2026-05-04 13:22 | 48.79607 | -1.00871 | 35975 ft | 461 kts | 354° |
| 2026-05-04 13:23 | 48.86004 | -1.01689 | 35982 ft | 462 kts | 354° |
| 2026-05-04 13:23 | 48.92417 | -1.02510 | 35997 ft | 465 kts | 354° |
| 2026-05-04 13:24 | 48.98894 | -1.03342 | 35991 ft | 469 kts | 354° |
| 2026-05-04 13:24 | 49.05421 | -1.04183 | 35992 ft | 472 kts | 354° |
| 2026-05-04 13:25 | 49.15253 | -1.05452 | 35993 ft | 473 kts | 354° |
| 2026-05-04 13:25 | 49.21802 | -1.06301 | 35987 ft | 470 kts | 354° |
| 2026-05-04 13:26 | 49.28237 | -1.07137 | 35991 ft | 465 kts | 354° |
| 2026-05-04 13:26 | 49.34680 | -1.07976 | 36002 ft | 464 kts | 354° |
| 2026-05-04 13:27 | 49.41117 | -1.08818 | 36006 ft | 464 kts | 354° |
| 2026-05-04 13:27 | 49.47542 | -1.09659 | 35993 ft | 458 kts | 354° |
| 2026-05-04 13:28 | 49.53800 | -1.10477 | 36003 ft | 448 kts | 356° |
| 2026-05-04 13:28 | 49.56903 | -1.10275 | 36001 ft | 446 kts | 12° |
| 2026-05-04 13:28 | 49.59875 | -1.08955 | 35793 ft | 446 kts | 24° |
| 2026-05-04 13:29 | 49.62550 | -1.06612 | 35485 ft | 439 kts | 39° |
| 2026-05-04 13:29 | 49.64935 | -1.03723 | 35116 ft | 434 kts | 41° |
| 2026-05-04 13:29 | 49.67275 | -1.00798 | 34734 ft | 431 kts | 40° |
| 2026-05-04 13:29 | 49.69619 | -0.97935 | 34355 ft | 429 kts | 40° |
| 2026-05-04 13:30 | 49.71975 | -0.95117 | 33961 ft | 427 kts | 39° |
| 2026-05-04 13:30 | 49.74470 | -0.92630 | 33472 ft | 428 kts | 27° |
| 2026-05-04 13:30 | 49.77217 | -0.90888 | 33050 ft | 427 kts | 18° |
| 2026-05-04 13:30 | 49.80116 | -0.89888 | 32566 ft | 427 kts | 6° |
| 2026-05-04 13:31 | 49.83059 | -0.89457 | 32206 ft | 423 kts | 5° |
| 2026-05-04 13:31 | 49.85988 | -0.89107 | 31808 ft | 421 kts | 4° |
| 2026-05-04 13:31 | 49.88904 | -0.88755 | 31436 ft | 419 kts | 4° |
| 2026-05-04 13:31 | 49.91799 | -0.88377 | 31066 ft | 417 kts | 5° |
| 2026-05-04 13:32 | 49.94684 | -0.87973 | 30706 ft | 415 kts | 5° |
| 2026-05-04 13:32 | 49.97551 | -0.87559 | 30346 ft | 413 kts | 5° |
| 2026-05-04 13:32 | 50.00409 | -0.87144 | 29961 ft | 412 kts | 5° |
| 2026-05-04 13:32 | 50.03272 | -0.86734 | 29343 ft | 415 kts | 4° |
| 2026-05-04 13:33 | 50.06133 | -0.86330 | 28971 ft | 411 kts | 4° |
| 2026-05-04 13:33 | 50.08970 | -0.85930 | 28577 ft | 408 kts | 4° |
| 2026-05-04 13:33 | 50.11786 | -0.85533 | 28221 ft | 405 kts | 4° |
| 2026-05-04 13:33 | 50.14579 | -0.85137 | 27845 ft | 402 kts | 4° |
| 2026-05-04 13:34 | 50.17350 | -0.84744 | 27483 ft | 399 kts | 4° |
| 2026-05-04 13:34 | 50.20106 | -0.84353 | 27125 ft | 396 kts | 4° |
| 2026-05-04 13:34 | 50.22803 | -0.83969 | 26775 ft | 393 kts | 4° |
| 2026-05-04 13:34 | 50.25551 | -0.83578 | 26424 ft | 390 kts | 4° |
| 2026-05-04 13:35 | 50.28249 | -0.83193 | 26076 ft | 388 kts | 4° |
| 2026-05-04 13:35 | 50.33555 | -0.82434 | 25407 ft | 383 kts | 4° |
| 2026-05-04 13:35 | 50.36192 | -0.82050 | 25111 ft | 379 kts | 4° |
| 2026-05-04 13:36 | 50.38810 | -0.81666 | 24769 ft | 377 kts | 4° |
| 2026-05-04 13:36 | 50.41415 | -0.81284 | 24434 ft | 375 kts | 4° |
| 2026-05-04 13:36 | 50.44010 | -0.80903 | 24094 ft | 374 kts | 4° |
| 2026-05-04 13:36 | 50.46594 | -0.80524 | 23753 ft | 372 kts | 4° |
| 2026-05-04 13:37 | 50.49167 | -0.80146 | 23355 ft | 371 kts | 4° |
| 2026-05-04 13:37 | 50.51731 | -0.79769 | 22984 ft | 369 kts | 4° |
| 2026-05-04 13:37 | 50.54279 | -0.79394 | 22608 ft | 367 kts | 4° |
| 2026-05-04 13:37 | 50.55902 | -0.79155 | 22397 ft | 365 kts | 4° |
| 2026-05-04 13:38 | 50.59234 | -0.78664 | 21951 ft | 361 kts | 4° |
| 2026-05-04 13:38 | 50.61726 | -0.78297 | 21612 ft | 359 kts | 4° |
| 2026-05-04 13:38 | 50.64200 | -0.77937 | 21295 ft | 355 kts | 4° |
| 2026-05-04 13:38 | 50.66652 | -0.77585 | 20958 ft | 353 kts | 4° |
| 2026-05-04 13:39 | 50.69092 | -0.77235 | 20629 ft | 351 kts | 4° |
| 2026-05-04 13:39 | 50.71516 | -0.76886 | 20297 ft | 349 kts | 5° |
| 2026-05-04 13:39 | 50.73924 | -0.76539 | 19971 ft | 347 kts | 5° |
| 2026-05-04 13:39 | 50.76322 | -0.76192 | 19662 ft | 345 kts | 5° |
| 2026-05-04 13:40 | 50.78710 | -0.75847 | 19327 ft | 344 kts | 5° |
| 2026-05-04 13:40 | 50.81086 | -0.75442 | 19007 ft | 342 kts | 12° |
| 2026-05-04 13:40 | 50.83315 | -0.74268 | 18840 ft | 334 kts | 22° |
| 2026-05-04 13:40 | 50.85455 | -0.72879 | 18651 ft | 331 kts | 24° |
| 2026-05-04 13:41 | 50.87567 | -0.71474 | 18486 ft | 328 kts | 24° |
| 2026-05-04 13:41 | 50.89680 | -0.70069 | 18320 ft | 331 kts | 24° |
| 2026-05-04 13:41 | 50.91814 | -0.68660 | 18130 ft | 334 kts | 23° |
| 2026-05-04 13:42 | 50.96101 | -0.65856 | 17740 ft | 331 kts | 23° |
| 2026-05-04 13:42 | 50.98222 | -0.64477 | 17554 ft | 329 kts | 23° |
| 2026-05-04 13:42 | 51.00336 | -0.63104 | 17394 ft | 329 kts | 23° |
| 2026-05-04 13:42 | 51.02453 | -0.61730 | 17204 ft | 329 kts | 23° |
| 2026-05-04 13:43 | 51.04566 | -0.60358 | 17038 ft | 327 kts | 23° |
| 2026-05-04 13:43 | 51.06672 | -0.58990 | 16870 ft | 326 kts | 23° |
| 2026-05-04 13:43 | 51.08769 | -0.57627 | 16703 ft | 325 kts | 23° |
| 2026-05-04 13:43 | 51.10859 | -0.56267 | 16532 ft | 324 kts | 23° |
| 2026-05-04 13:44 | 51.12944 | -0.54909 | 16361 ft | 323 kts | 22° |
| 2026-05-04 13:44 | 51.15021 | -0.53555 | 16190 ft | 323 kts | 22° |
| 2026-05-04 13:44 | 51.17090 | -0.52205 | 16014 ft | 321 kts | 22° |
| 2026-05-04 13:44 | 51.19160 | -0.50853 | 15855 ft | 320 kts | 22° |
| 2026-05-04 13:45 | 51.21216 | -0.49508 | 15684 ft | 319 kts | 22° |
| 2026-05-04 13:45 | 51.23270 | -0.48164 | 15524 ft | 318 kts | 22° |
| 2026-05-04 13:45 | 51.25315 | -0.46824 | 15342 ft | 317 kts | 22° |
| 2026-05-04 13:45 | 51.27355 | -0.45486 | 15188 ft | 317 kts | 22° |
| 2026-05-04 13:46 | 51.29389 | -0.44151 | 15012 ft | 316 kts | 22° |
| 2026-05-04 13:46 | 51.31415 | -0.42820 | 14855 ft | 314 kts | 22° |
| 2026-05-04 13:46 | 51.33432 | -0.41493 | 14686 ft | 313 kts | 22° |
| 2026-05-04 13:46 | 51.35446 | -0.40167 | 14522 ft | 313 kts | 22° |
| 2026-05-04 13:47 | 51.37457 | -0.38843 | 14360 ft | 312 kts | 22° |
| 2026-05-04 13:47 | 51.39463 | -0.37520 | 14197 ft | 311 kts | 22° |
| 2026-05-04 13:47 | 51.41464 | -0.36200 | 14029 ft | 310 kts | 22° |
| 2026-05-04 13:47 | 51.42783 | -0.35328 | 13925 ft | 309 kts | 22° |
| 2026-05-04 13:48 | 51.44755 | -0.33962 | 13752 ft | 308 kts | 24° |
| 2026-05-04 13:48 | 51.46692 | -0.32496 | 13572 ft | 308 kts | 25° |
| 2026-05-04 13:48 | 51.48617 | -0.31006 | 13402 ft | 307 kts | 25° |
| 2026-05-04 13:48 | 51.50537 | -0.29517 | 13235 ft | 306 kts | 25° |
| 2026-05-04 13:49 | 51.52456 | -0.28033 | 13089 ft | 306 kts | 25° |
| 2026-05-04 13:49 | 51.54375 | -0.26553 | 12918 ft | 306 kts | 25° |
| 2026-05-04 13:49 | 51.56292 | -0.25077 | 12745 ft | 304 kts | 25° |
| 2026-05-04 13:49 | 51.58194 | -0.23614 | 12581 ft | 302 kts | 25° |
| 2026-05-04 13:50 | 51.60087 | -0.22158 | 12512 ft | 300 kts | 25° |
| 2026-05-04 13:50 | 51.61962 | -0.20716 | 12565 ft | 299 kts | 25° |
| 2026-05-04 13:50 | 51.63855 | -0.19259 | 12566 ft | 304 kts | 25° |
| 2026-05-04 13:50 | 51.65766 | -0.17787 | 12576 ft | 305 kts | 25° |
| 2026-05-04 13:51 | 51.67674 | -0.16316 | 12562 ft | 304 kts | 24° |
| 2026-05-04 13:51 | 51.69573 | -0.14851 | 12534 ft | 301 kts | 24° |
| 2026-05-04 13:51 | 51.71431 | -0.13416 | 12322 ft | 297 kts | 25° |
| 2026-05-04 13:51 | 51.73289 | -0.11980 | 11839 ft | 297 kts | 24° |
| 2026-05-04 13:52 | 51.77031 | -0.09181 | 11102 ft | 291 kts | 22° |
| 2026-05-04 13:52 | 51.78890 | -0.07889 | 10920 ft | 291 kts | 22° |
| 2026-05-04 13:52 | 51.80750 | -0.06604 | 10760 ft | 292 kts | 22° |
| 2026-05-04 13:53 | 51.82624 | -0.05304 | 10604 ft | 294 kts | 22° |
| 2026-05-04 13:53 | 51.84511 | -0.03990 | 10406 ft | 296 kts | 22° |
| 2026-05-04 13:53 | 51.86398 | -0.02670 | 10237 ft | 295 kts | 22° |
| 2026-05-04 13:54 | 51.90095 | -0.00073 | 9911 ft | 284 kts | 22° |
| 2026-05-04 13:54 | 51.91904 | 0.01199 | 9745 ft | 283 kts | 22° |
| 2026-05-04 13:54 | 51.95488 | 0.03725 | 9422 ft | 275 kts | 22° |
| 2026-05-04 13:55 | 51.97219 | 0.04947 | 9267 ft | 269 kts | 22° |
| 2026-05-04 13:55 | 52.00589 | 0.07194 | 8987 ft | 256 kts | 23° |
| 2026-05-04 13:55 | 52.02196 | 0.08392 | 8868 ft | 253 kts | 24° |
| 2026-05-04 13:56 | 52.03614 | 0.10037 | 8741 ft | 253 kts | 55° |
| 2026-05-04 13:56 | 52.04234 | 0.12692 | 8360 ft | 263 kts | 88° |
| 2026-05-04 13:56 | 52.02541 | 0.17754 | 6929 ft | 289 kts | 152° |
| 2026-05-04 13:57 | 52.00618 | 0.18798 | 6438 ft | 293 kts | 168° |
| 2026-05-04 13:57 | 51.98647 | 0.19400 | 6234 ft | 282 kts | 170° |
| 2026-05-04 13:58 | 51.93090 | 0.20617 | 5071 ft | 267 kts | 192° |
| 2026-05-04 13:58 | 51.90413 | 0.16878 | 4121 ft | 264 kts | 239° |
| 2026-05-04 13:58 | 51.89504 | 0.14329 | 3712 ft | 261 kts | 240° |
| 2026-05-04 13:59 | 51.88614 | 0.11781 | 3275 ft | 259 kts | 241° |
| 2026-05-04 13:59 | 51.87730 | 0.09253 | 2859 ft | 256 kts | 241° |
| 2026-05-04 13:59 | 51.86043 | 0.04520 | 2487 ft | 223 kts | 237° |
| 2026-05-04 14:00 | 51.84907 | 0.03070 | 2486 ft | 199 kts | 201° |
| 2026-05-04 14:00 | 51.82531 | 0.01656 | 2484 ft | 173 kts | 201° |
| 2026-05-04 14:00 | 51.81414 | 0.00984 | 2523 ft | 172 kts | 201° |
| 2026-05-04 14:01 | 51.80289 | 0.00302 | 2496 ft | 174 kts | 201° |
| 2026-05-04 14:01 | 51.79163 | -0.00378 | 2486 ft | 171 kts | 201° |
| 2026-05-04 14:01 | 51.76913 | -0.00842 | 2544 ft | 171 kts | 147° |
| 2026-05-04 14:02 | 51.76250 | 0.00660 | 2535 ft | 167 kts | 93° |
| 2026-05-04 14:02 | 51.76459 | 0.02441 | 2535 ft | 160 kts | 70° |
| 2026-05-04 14:02 | 51.76788 | 0.04149 | 2498 ft | 158 kts | 71° |
| 2026-05-04 14:02 | 51.77147 | 0.05805 | 2483 ft | 155 kts | 57° |
| 2026-05-04 14:03 | 51.77857 | 0.07122 | 2524 ft | 159 kts | 47° |
| 2026-05-04 14:03 | 51.78592 | 0.08433 | 2489 ft | 155 kts | 45° |
| 2026-05-04 14:03 | 51.79354 | 0.09656 | 2487 ft | 153 kts | 43° |
| 2026-05-04 14:03 | 51.80131 | 0.10847 | 2449 ft | 158 kts | 42° |
| 2026-05-04 14:04 | 51.81747 | 0.13291 | 2031 ft | 157 kts | 41° |
| 2026-05-04 14:04 | 51.82534 | 0.14479 | 1814 ft | 153 kts | 40° |
| 2026-05-04 14:04 | 51.83292 | 0.15622 | 1631 ft | 149 kts | 40° |
| 2026-05-04 14:05 | 51.84825 | 0.17920 | 1412 ft | 151 kts | 41° |
| 2026-05-04 14:05 | 51.85595 | 0.19106 | 1367 ft | 154 kts | 41° |
| 2026-05-04 14:05 | 51.86382 | 0.20316 | 1085 ft | 158 kts | 41° |
| 2026-05-04 14:06 | 51.87178 | 0.21505 | 730 ft | 153 kts | 41° |
| 2026-05-04 14:06 | 51.87949 | 0.22674 | 392 ft | 148 kts | 41° |
| 2026-05-04 14:06 | 51.88652 | 0.23709 | 337 ft | 126 kts | 45° |
| 2026-05-04 14:06 | 51.89183 | 0.24502 | 339 ft | 75 kts | 41° |
| 2026-05-04 14:07 | 51.89461 | 0.24895 | 337 ft | 33 kts | 41° |
| 2026-05-04 14:07 | 51.89525 | 0.24980 | 335 ft | 1 kts | 81° |
| 2026-05-04 14:07 | 51.89486 | 0.25057 | 338 ft | 25 kts | 134° |
| 2026-05-04 14:07 | 51.89366 | 0.25262 | 355 ft | 24 kts | 133° |
| 2026-05-04 14:08 | 51.89341 | 0.25480 | 350 ft | 1 kts | 75° |
| 2026-05-04 14:08 | 51.89353 | 0.25511 | 350 ft | 6 kts | 54° |
| 2026-05-04 14:08 | 51.89365 | 0.25573 | 353 ft | 6 kts | 86° |
| 2026-05-04 14:08 | 51.89361 | 0.25638 | 352 ft | 6 kts | 112° |
| 2026-05-04 14:09 | 51.89314 | 0.25747 | 355 ft | 6 kts | 131° |
| 2026-05-04 14:09 | 51.89299 | 0.25800 | 351 ft | 0 kts | 82° |
| 2026-05-04 14:10 | 51.89311 | 0.25819 | 352 ft | 0 kts | 43° |